createdAt,value
2023-04-30T00:00:23.067Z,1.25
2023-04-30T00:01:23.067Z,0.90
2023-04-30T00:02:23.142Z,0.58
2023-04-30T00:03:23.145Z,0.85
2023-04-30T00:04:22.115Z,0.58
2023-04-30T00:05:22.113Z,0.77
2023-04-30T00:06:22.160Z,0.71
2023-04-30T00:07:23.142Z,0.92
2023-04-30T00:08:22.142Z,0.82
2023-04-30T00:09:23.202Z,0.82
2023-04-30T00:10:23.165Z,0.82
2023-04-30T00:11:22.156Z,0.88
2023-04-30T00:12:22.195Z,1.04
2023-04-30T00:13:23.191Z,0.69
2023-04-30T00:14:22.242Z,1.07
2023-04-30T00:15:23.383Z,0.79
2023-04-30T00:16:23.502Z,0.97
2023-04-30T00:17:22.413Z,0.85
2023-04-30T00:18:22.292Z,0.93
2023-04-30T00:19:23.365Z,0.83
2023-04-30T00:20:22.330Z,0.77
2023-04-30T00:21:23.361Z,0.90
2023-04-30T00:22:23.281Z,1.11
2023-04-30T00:23:22.271Z,0.81
2023-04-30T00:24:22.326Z,1.13
2023-04-30T00:25:23.293Z,1.15
2023-04-30T00:26:23.345Z,0.80
2023-04-30T00:27:22.380Z,0.84
2023-04-30T00:28:24.335Z,0.67
2023-04-30T00:29:23.328Z,0.75
2023-04-30T00:30:23.430Z,1.07
2023-04-30T00:31:23.446Z,0.78
2023-04-30T00:32:23.144Z,1.79
2023-04-30T00:33:23.396Z,0.85
2023-04-30T00:34:23.387Z,0.79
2023-04-30T00:35:22.411Z,1.01
2023-04-30T00:36:23.498Z,1.05
2023-04-30T00:37:23.409Z,0.99
2023-04-30T00:38:23.404Z,1.05
2023-04-30T00:39:23.415Z,0.88
2023-04-30T00:40:23.458Z,0.78
2023-04-30T00:41:22.444Z,0.71
2023-04-30T00:42:23.478Z,1.07
2023-04-30T00:43:22.460Z,1.22
2023-04-30T00:44:23.490Z,0.79
2023-04-30T00:45:23.492Z,0.96
2023-04-30T00:46:22.738Z,0.81
2023-04-30T00:47:23.614Z,1.11
2023-04-30T00:48:23.596Z,0.82
2023-04-30T00:49:22.744Z,0.85
2023-04-30T00:50:23.558Z,0.85
2023-04-30T00:51:23.679Z,0.97
2023-04-30T00:52:23.986Z,0.97
2023-04-30T00:53:22.599Z,0.84
2023-04-30T00:54:22.607Z,0.74
2023-04-30T00:55:22.670Z,0.94
2023-04-30T00:56:24.332Z,0.81
2023-04-30T00:57:23.693Z,0.92
2023-04-30T00:58:23.744Z,1.00
2023-04-30T00:59:23.723Z,0.89
2023-04-30T01:00:22.752Z,1.14
2023-04-30T01:01:23.821Z,1.05
2023-04-30T01:02:22.962Z,0.99
2023-04-30T01:03:24.038Z,0.91
2023-04-30T01:04:22.882Z,0.97
2023-04-30T01:05:22.844Z,1.10
2023-04-30T01:06:22.917Z,0.81
2023-04-30T01:07:23.889Z,0.78
2023-04-30T01:08:23.883Z,0.79
2023-04-30T01:09:24.077Z,0.73
2023-04-30T01:10:23.947Z,0.63
2023-04-30T01:11:23.970Z,1.01
2023-04-30T01:12:23.999Z,0.73
2023-04-30T01:13:25.738Z,0.97
2023-04-30T01:14:23.984Z,1.13
2023-04-30T01:15:23.935Z,0.63
2023-04-30T01:16:23.078Z,0.90
2023-04-30T01:17:24.005Z,1.03
2023-04-30T01:18:23.066Z,1.04
2023-04-30T01:19:22.968Z,0.80
2023-04-30T01:20:23.899Z,0.89
2023-04-30T01:21:23.899Z,0.83
2023-04-30T01:22:23.905Z,1.09
2023-04-30T01:23:22.876Z,1.16
2023-04-30T01:24:22.890Z,0.94
2023-04-30T01:25:23.878Z,0.91
2023-04-30T01:26:22.871Z,1.03
2023-04-30T01:27:22.875Z,0.91
2023-04-30T01:28:23.899Z,0.81
2023-04-30T01:29:22.863Z,0.98
2023-04-30T01:30:22.851Z,1.07
2023-04-30T01:31:23.863Z,1.04
2023-04-30T01:32:24.015Z,1.06
2023-04-30T01:33:23.810Z,0.96
2023-04-30T01:34:23.852Z,1.13
2023-04-30T01:35:23.876Z,1.16
2023-04-30T01:36:22.822Z,1.04
2023-04-30T01:37:23.878Z,0.87
2023-04-30T01:38:23.859Z,0.95
2023-04-30T01:39:23.796Z,0.99
2023-04-30T01:40:23.768Z,1.10
2023-04-30T01:41:23.789Z,0.88
2023-04-30T01:42:23.849Z,0.99
2023-04-30T01:43:22.843Z,0.88
2023-04-30T01:44:22.788Z,0.80
2023-04-30T01:45:22.774Z,0.91
2023-04-30T01:46:23.814Z,1.05
2023-04-30T01:47:23.861Z,0.92
2023-04-30T01:48:23.744Z,1.06
2023-04-30T01:49:23.729Z,1.26
2023-04-30T01:50:22.710Z,0.97
2023-04-30T01:51:23.767Z,0.93
2023-04-30T01:52:23.718Z,0.90
2023-04-30T01:53:23.733Z,1.11
2023-04-30T01:54:22.689Z,0.78
2023-04-30T01:55:22.711Z,1.11
2023-04-30T01:56:23.675Z,1.01
2023-04-30T01:57:23.673Z,1.05
2023-04-30T01:58:22.697Z,1.09
2023-04-30T01:59:22.689Z,1.13
2023-04-30T02:00:23.715Z,1.31
2023-04-30T02:01:22.785Z,1.02
2023-04-30T02:02:23.780Z,1.06
2023-04-30T02:03:23.888Z,0.93
2023-04-30T02:04:23.683Z,0.92
2023-04-30T02:05:23.685Z,1.16
2023-04-30T02:06:23.682Z,1.42
2023-04-30T02:07:22.632Z,1.09
2023-04-30T02:08:22.696Z,0.96
2023-04-30T02:09:23.622Z,1.05
2023-04-30T02:10:22.580Z,1.19
2023-04-30T02:11:23.566Z,1.10
2023-04-30T02:12:23.588Z,0.84
2023-04-30T02:13:23.572Z,1.06
2023-04-30T02:14:22.560Z,0.97
2023-04-30T02:15:23.566Z,0.86
2023-04-30T02:16:22.571Z,0.91
2023-04-30T02:17:22.545Z,1.12
2023-04-30T02:18:23.574Z,0.87
2023-04-30T02:19:22.522Z,0.73
2023-04-30T02:20:22.555Z,1.15
2023-04-30T02:21:22.505Z,0.88
2023-04-30T02:22:22.519Z,0.85
2023-04-30T02:23:23.539Z,0.89
2023-04-30T02:24:22.497Z,0.91
2023-04-30T02:25:23.485Z,1.13
2023-04-30T02:26:23.476Z,0.93
2023-04-30T02:27:22.460Z,0.97
2023-04-30T02:28:23.494Z,0.80
2023-04-30T02:29:22.505Z,1.12
2023-04-30T02:30:23.474Z,1.12
2023-04-30T02:31:23.625Z,1.13
2023-04-30T02:32:23.519Z,1.37
2023-04-30T02:33:23.501Z,1.12
2023-04-30T02:34:23.569Z,1.16
2023-04-30T02:35:22.568Z,1.08
2023-04-30T02:36:23.638Z,0.84
2023-04-30T02:37:23.587Z,1.44
2023-04-30T02:38:23.592Z,1.15
2023-04-30T02:39:23.669Z,0.89
2023-04-30T02:40:23.672Z,1.27
2023-04-30T02:41:23.626Z,1.06
2023-04-30T02:42:23.668Z,1.18
2023-04-30T02:43:23.664Z,1.03
2023-04-30T02:44:23.772Z,1.08
2023-04-30T02:45:23.819Z,1.01
2023-04-30T02:46:22.847Z,1.07
2023-04-30T02:47:22.832Z,0.94
2023-04-30T02:48:22.741Z,1.09
2023-04-30T02:49:23.734Z,1.43
2023-04-30T02:50:23.783Z,1.11
2023-04-30T02:51:23.798Z,0.91
2023-04-30T02:52:23.872Z,1.46
2023-04-30T02:53:23.816Z,0.88
2023-04-30T02:54:23.830Z,0.93
2023-04-30T02:55:23.866Z,1.23
2023-04-30T02:56:23.891Z,1.06
2023-04-30T02:57:23.979Z,1.27
2023-04-30T02:58:23.934Z,1.01
2023-04-30T02:59:22.859Z,1.13
2023-04-30T03:00:23.888Z,1.14
2023-04-30T03:01:23.961Z,1.05
2023-04-30T03:02:22.990Z,1.09
2023-04-30T03:03:24.027Z,1.09
2023-04-30T03:04:23.951Z,1.12
2023-04-30T03:05:23.979Z,0.84
2023-04-30T03:06:24.018Z,1.27
2023-04-30T03:07:24.015Z,0.82
2023-04-30T03:08:24.066Z,1.21
2023-04-30T03:09:24.057Z,0.88
2023-04-30T03:10:24.074Z,1.05
2023-04-30T03:11:24.075Z,1.12
2023-04-30T03:12:23.102Z,1.45
2023-04-30T03:13:23.128Z,1.09
2023-04-30T03:14:23.129Z,1.13
2023-04-30T03:15:23.164Z,1.10
2023-04-30T03:16:24.280Z,1.07
2023-04-30T03:17:24.261Z,1.02
2023-04-30T03:18:24.209Z,0.99
2023-04-30T03:19:23.246Z,1.20
2023-04-30T03:20:24.235Z,1.07
2023-04-30T03:21:24.253Z,1.27
2023-04-30T03:22:24.295Z,1.24
2023-04-30T03:23:24.326Z,1.39
2023-04-30T03:24:24.357Z,1.19
2023-04-30T03:25:24.359Z,1.29
2023-04-30T03:26:24.434Z,1.16
2023-04-30T03:27:24.386Z,1.12
2023-04-30T03:28:24.414Z,1.22
2023-04-30T03:29:23.449Z,1.11
2023-04-30T03:30:23.478Z,1.19
2023-04-30T03:31:24.557Z,1.38
2023-04-30T03:32:24.559Z,1.56
2023-04-30T03:33:24.644Z,1.12
2023-04-30T03:34:23.524Z,0.83
2023-04-30T03:35:24.590Z,1.18
2023-04-30T03:36:23.548Z,1.25
2023-04-30T03:37:24.563Z,1.35
2023-04-30T03:38:23.626Z,1.08
2023-04-30T03:39:23.620Z,1.05
2023-04-30T03:40:23.724Z,1.30
2023-04-30T03:41:25.107Z,1.33
2023-04-30T03:42:24.850Z,1.37
2023-04-30T03:43:24.764Z,1.50
2023-04-30T03:44:24.783Z,1.22
2023-04-30T03:45:24.906Z,1.22
2023-04-30T03:46:24.907Z,1.06
2023-04-30T03:47:23.776Z,1.20
2023-04-30T03:48:23.779Z,1.44
2023-04-30T03:49:23.791Z,1.12
2023-04-30T03:50:23.932Z,1.51
2023-04-30T03:51:25.018Z,1.37
2023-04-30T03:52:23.901Z,1.41
2023-04-30T03:53:23.960Z,1.15
2023-04-30T03:54:24.884Z,0.98
2023-04-30T03:55:24.924Z,1.12
2023-04-30T03:56:24.899Z,1.60
2023-04-30T03:57:24.943Z,1.40
2023-04-30T03:58:23.935Z,1.48
2023-04-30T03:59:24.931Z,1.18
2023-04-30T04:00:23.927Z,1.13
2023-04-30T04:01:24.932Z,1.35
2023-04-30T04:02:25.279Z,1.19
2023-04-30T04:03:24.985Z,1.49
2023-04-30T04:04:25.099Z,1.37
2023-04-30T04:05:24.234Z,1.51
2023-04-30T04:06:25.099Z,1.08
2023-04-30T04:07:24.030Z,1.10
2023-04-30T04:08:24.035Z,1.25
2023-04-30T04:09:24.050Z,1.20
2023-04-30T04:10:24.074Z,1.08
2023-04-30T04:11:25.135Z,1.56
2023-04-30T04:12:25.148Z,1.44
2023-04-30T04:13:24.191Z,1.46
2023-04-30T04:14:24.246Z,1.46
2023-04-30T04:15:24.206Z,1.29
2023-04-30T04:16:24.229Z,1.64
2023-04-30T04:17:25.309Z,1.32
2023-04-30T04:18:25.284Z,1.17
2023-04-30T04:19:25.263Z,0.98
2023-04-30T04:20:24.288Z,1.30
2023-04-30T04:21:24.265Z,1.67
2023-04-30T04:22:25.381Z,1.06
2023-04-30T04:23:25.330Z,1.46
2023-04-30T04:24:25.336Z,1.27
2023-04-30T04:25:25.400Z,1.35
2023-04-30T04:26:25.394Z,1.18
2023-04-30T04:27:24.455Z,1.14
2023-04-30T04:28:25.984Z,1.37
2023-04-30T04:29:25.495Z,1.51
2023-04-30T04:30:24.476Z,1.42
2023-04-30T04:31:24.539Z,1.12
2023-04-30T04:32:25.615Z,1.77
2023-04-30T04:33:24.613Z,1.44
2023-04-30T04:34:25.603Z,1.46
2023-04-30T04:35:25.610Z,1.25
2023-04-30T04:36:25.740Z,1.59
2023-04-30T04:37:26.095Z,1.13
2023-04-30T04:38:24.796Z,1.68
2023-04-30T04:39:26.169Z,1.43
2023-04-30T04:40:25.852Z,1.74
2023-04-30T04:41:25.754Z,1.55
2023-04-30T04:42:25.747Z,1.41
2023-04-30T04:43:24.771Z,1.08
2023-04-30T04:44:25.726Z,1.22
2023-04-30T04:45:25.814Z,1.78
2023-04-30T04:46:25.861Z,1.45
2023-04-30T04:47:24.805Z,1.51
2023-04-30T04:48:25.963Z,1.54
2023-04-30T04:49:24.836Z,1.63
2023-04-30T04:50:25.858Z,1.61
2023-04-30T04:51:26.062Z,1.23
2023-04-30T04:52:25.952Z,1.28
2023-04-30T04:53:26.043Z,1.33
2023-04-30T04:54:25.955Z,1.34
2023-04-30T04:55:25.951Z,1.66
2023-04-30T04:56:25.982Z,1.57
2023-04-30T04:57:25.067Z,1.50
2023-04-30T04:58:26.056Z,1.39
2023-04-30T04:59:26.031Z,1.56
2023-04-30T05:00:25.856Z,1.40
2023-04-30T05:01:25.181Z,1.36
2023-04-30T05:02:26.282Z,1.47
2023-04-30T05:03:25.640Z,1.11
2023-04-30T05:04:26.139Z,1.30
2023-04-30T05:05:25.130Z,1.31
2023-04-30T05:06:25.214Z,1.53
2023-04-30T05:07:25.181Z,1.77
2023-04-30T05:08:26.186Z,1.39
2023-04-30T05:09:26.251Z,1.23
2023-04-30T05:10:25.267Z,1.42
2023-04-30T05:11:26.292Z,1.44
2023-04-30T05:12:25.293Z,1.46
2023-04-30T05:13:26.348Z,1.51
2023-04-30T05:14:26.349Z,1.50
2023-04-30T05:15:26.349Z,1.34
2023-04-30T05:16:26.412Z,1.91
2023-04-30T05:17:26.460Z,1.95
2023-04-30T05:18:25.420Z,1.62
2023-04-30T05:19:26.424Z,1.55
2023-04-30T05:20:25.463Z,1.48
2023-04-30T05:21:25.459Z,1.37
2023-04-30T05:22:26.485Z,1.82
2023-04-30T05:23:26.516Z,1.44
2023-04-30T05:24:26.532Z,1.45
2023-04-30T05:25:26.575Z,1.75
2023-04-30T05:26:25.616Z,1.63
2023-04-30T05:27:25.694Z,1.33
2023-04-30T05:28:26.635Z,1.74
2023-04-30T05:29:25.667Z,1.62
2023-04-30T05:30:25.674Z,1.40
2023-04-30T05:31:25.744Z,1.69
2023-04-30T05:32:26.755Z,1.39
2023-04-30T05:33:25.719Z,1.44
2023-04-30T05:34:26.751Z,1.78
2023-04-30T05:35:26.766Z,1.46
2023-04-30T05:36:25.763Z,1.36
2023-04-30T05:37:26.792Z,1.44
2023-04-30T05:38:26.819Z,1.35
2023-04-30T05:39:26.860Z,1.34
2023-04-30T05:40:25.865Z,1.65
2023-04-30T05:41:26.927Z,1.69
2023-04-30T05:42:25.891Z,1.81
2023-04-30T05:43:27.047Z,1.35
2023-04-30T05:44:26.967Z,1.53
2023-04-30T05:45:26.025Z,1.40
2023-04-30T05:46:26.111Z,1.99
2023-04-30T05:47:26.017Z,1.61
2023-04-30T05:48:27.099Z,1.70
2023-04-30T05:49:27.134Z,1.32
2023-04-30T05:50:27.062Z,1.73
2023-04-30T05:51:26.077Z,1.53
2023-04-30T05:52:26.130Z,1.52
2023-04-30T05:53:27.149Z,1.56
2023-04-30T05:54:26.285Z,1.70
2023-04-30T05:55:27.194Z,1.45
2023-04-30T05:56:27.198Z,1.75
2023-04-30T05:57:27.201Z,1.77
2023-04-30T05:58:26.238Z,1.81
2023-04-30T05:59:27.264Z,1.64
2023-04-30T06:00:26.259Z,1.76
2023-04-30T06:01:27.278Z,1.50
2023-04-30T06:02:27.379Z,1.49
2023-04-30T06:03:27.312Z,1.65
2023-04-30T06:04:26.449Z,1.88
2023-04-30T06:05:27.410Z,1.71
2023-04-30T06:06:27.418Z,1.66
2023-04-30T06:07:26.396Z,1.43
2023-04-30T06:08:26.440Z,1.63
2023-04-30T06:09:26.467Z,1.69
2023-04-30T06:10:27.513Z,1.50
2023-04-30T06:11:27.489Z,1.99
2023-04-30T06:12:27.505Z,1.78
2023-04-30T06:13:27.514Z,2.09
2023-04-30T06:14:26.540Z,1.16
2023-04-30T06:15:26.547Z,1.61
2023-04-30T06:16:27.593Z,1.54
2023-04-30T06:17:27.670Z,1.61
2023-04-30T06:18:27.585Z,1.39
2023-04-30T06:19:27.626Z,2.27
2023-04-30T06:20:26.718Z,1.64
2023-04-30T06:21:27.690Z,1.63
2023-04-30T06:22:27.683Z,1.79
2023-04-30T06:23:26.731Z,1.43
2023-04-30T06:24:27.730Z,1.51
2023-04-30T06:25:26.784Z,1.50
2023-04-30T06:26:26.802Z,1.71
2023-04-30T06:27:26.862Z,1.63
2023-04-30T06:28:27.816Z,1.58
2023-04-30T06:29:27.835Z,1.99
2023-04-30T06:30:26.902Z,1.77
2023-04-30T06:31:26.915Z,2.00
2023-04-30T06:32:26.915Z,1.43
2023-04-30T06:33:27.979Z,2.06
2023-04-30T06:34:27.944Z,1.63
2023-04-30T06:35:27.957Z,1.62
2023-04-30T06:36:26.969Z,1.43
2023-04-30T06:37:28.005Z,1.84
2023-04-30T06:38:27.003Z,2.19
2023-04-30T06:39:27.033Z,1.80
2023-04-30T06:40:27.147Z,1.60
2023-04-30T06:41:28.054Z,1.74
2023-04-30T06:42:28.099Z,1.72
2023-04-30T06:43:28.118Z,1.79
2023-04-30T06:44:27.155Z,1.62
2023-04-30T06:45:27.138Z,1.67
2023-04-30T06:46:28.251Z,1.60
2023-04-30T06:47:28.240Z,1.41
2023-04-30T06:48:28.343Z,1.75
2023-04-30T06:49:28.288Z,2.05
2023-04-30T06:50:28.246Z,1.88
2023-04-30T06:51:28.249Z,1.68
2023-04-30T06:52:28.248Z,2.22
2023-04-30T06:53:28.234Z,1.74
2023-04-30T06:54:28.233Z,1.93
2023-04-30T06:55:28.309Z,1.51
2023-04-30T06:56:28.334Z,1.73
2023-04-30T06:57:27.274Z,1.99
2023-04-30T06:58:27.296Z,1.53
2023-04-30T06:59:27.354Z,1.88
2023-04-30T07:00:28.794Z,1.86
2023-04-30T07:01:27.388Z,1.93
2023-04-30T07:02:28.555Z,1.62
2023-04-30T07:03:28.438Z,1.59
2023-04-30T07:04:27.364Z,2.11
2023-04-30T07:05:28.052Z,1.76
2023-04-30T07:06:28.440Z,1.68
2023-04-30T07:07:27.390Z,1.61
2023-04-30T07:08:28.415Z,1.58
2023-04-30T07:09:27.414Z,1.64
2023-04-30T07:10:27.461Z,1.64
2023-04-30T07:11:27.437Z,1.92
2023-04-30T07:12:27.531Z,1.48
2023-04-30T07:13:28.500Z,1.96
2023-04-30T07:14:27.440Z,1.95
2023-04-30T07:15:28.488Z,1.81
2023-04-30T07:16:28.510Z,1.85
2023-04-30T07:17:27.872Z,1.69
2023-04-30T07:18:28.486Z,1.76
2023-04-30T07:19:28.613Z,1.57
2023-04-30T07:20:27.649Z,1.82
2023-04-30T07:21:28.493Z,1.77
2023-04-30T07:22:28.560Z,1.75
2023-04-30T07:23:30.559Z,1.48
2023-04-30T07:24:27.609Z,1.82
2023-04-30T07:25:27.492Z,1.83
2023-04-30T07:26:28.502Z,1.54
2023-04-30T07:27:28.479Z,1.42
2023-04-30T07:28:28.489Z,1.47
2023-04-30T07:29:28.510Z,1.78
2023-04-30T07:30:28.492Z,1.65
2023-04-30T07:31:27.669Z,1.52
2023-04-30T07:32:28.524Z,1.44
2023-04-30T07:33:28.552Z,1.50
2023-04-30T07:34:27.486Z,1.68
2023-04-30T07:35:28.442Z,2.01
2023-04-30T07:36:28.425Z,1.72
2023-04-30T07:37:28.419Z,1.78
2023-04-30T07:38:28.385Z,1.68
2023-04-30T07:39:28.398Z,1.38
2023-04-30T07:40:35.897Z,1.56
2023-04-30T07:41:28.392Z,1.70
2023-04-30T07:42:27.389Z,1.68
2023-04-30T07:43:27.403Z,1.48
2023-04-30T07:44:28.350Z,1.62
2023-04-30T07:45:28.353Z,1.60
2023-04-30T07:46:28.514Z,1.85
2023-04-30T07:47:28.389Z,1.58
2023-04-30T07:48:27.327Z,1.51
2023-04-30T07:49:28.326Z,1.43
2023-04-30T07:50:28.307Z,1.80
2023-04-30T07:51:28.320Z,1.44
2023-04-30T07:52:28.309Z,1.66
2023-04-30T07:53:27.384Z,1.71
2023-04-30T07:54:28.373Z,1.26
2023-04-30T07:55:28.293Z,1.58
2023-04-30T07:56:28.297Z,1.94
2023-04-30T07:57:28.277Z,1.55
2023-04-30T07:58:28.294Z,1.37
2023-04-30T07:59:28.260Z,1.57
2023-04-30T08:00:27.232Z,1.81
2023-04-30T08:01:28.251Z,2.13
2023-04-30T08:02:28.315Z,1.51
2023-04-30T08:03:28.306Z,1.45
2023-04-30T08:04:28.295Z,1.46
2023-04-30T08:05:27.221Z,1.44
2023-04-30T08:06:28.228Z,1.57
2023-04-30T08:07:27.347Z,1.67
2023-04-30T08:08:28.221Z,1.74
2023-04-30T08:09:28.536Z,1.51
2023-04-30T08:10:28.212Z,1.52
2023-04-30T08:11:28.337Z,1.57
2023-04-30T08:12:28.315Z,1.49
2023-04-30T08:13:28.346Z,1.31
2023-04-30T08:14:28.374Z,1.52
2023-04-30T08:15:29.476Z,1.75
2023-04-30T08:16:28.445Z,1.65
2023-04-30T08:17:28.433Z,1.42
2023-04-30T08:18:28.420Z,1.41
2023-04-30T08:19:28.671Z,1.41
2023-04-30T08:20:28.378Z,1.83
2023-04-30T08:21:27.382Z,1.76
2023-04-30T08:22:27.366Z,1.66
2023-04-30T08:23:28.373Z,1.42
2023-04-30T08:24:28.361Z,1.71
2023-04-30T08:25:28.352Z,1.72
2023-04-30T08:26:27.364Z,1.85
2023-04-30T08:27:27.330Z,2.14
2023-04-30T08:28:27.351Z,1.53
2023-04-30T08:29:28.316Z,1.53
2023-04-30T08:30:27.329Z,2.01
2023-04-30T08:31:28.352Z,1.58
2023-04-30T08:32:28.380Z,1.97
2023-04-30T08:33:27.353Z,1.32
2023-04-30T08:34:28.329Z,1.78
2023-04-30T08:35:28.276Z,1.72
2023-04-30T08:36:28.283Z,1.61
2023-04-30T08:37:27.328Z,1.81
2023-04-30T08:38:28.448Z,1.88
2023-04-30T08:39:28.283Z,1.67
2023-04-30T08:40:43.479Z,1.65
2023-04-30T08:41:28.274Z,1.63
2023-04-30T08:42:28.244Z,1.79
2023-04-30T08:43:28.234Z,1.40
2023-04-30T08:44:27.241Z,1.42
2023-04-30T08:45:28.225Z,1.60
2023-04-30T08:46:27.319Z,1.77
2023-04-30T08:47:27.291Z,1.54
2023-04-30T08:48:28.186Z,1.63
2023-04-30T08:49:27.239Z,1.77
2023-04-30T08:50:28.198Z,1.77
2023-04-30T08:51:28.258Z,1.59
2023-04-30T08:52:28.207Z,1.23
2023-04-30T08:53:28.222Z,1.94
2023-04-30T08:54:28.151Z,1.58
2023-04-30T08:55:28.157Z,1.51
2023-04-30T08:56:27.206Z,1.61
2023-04-30T08:57:28.237Z,1.61
2023-04-30T08:58:27.239Z,1.72
2023-04-30T08:59:28.345Z,1.19
2023-04-30T09:00:28.353Z,1.52
2023-04-30T09:01:27.369Z,1.31
2023-04-30T09:02:28.431Z,1.46
2023-04-30T09:03:28.571Z,1.43
2023-04-30T09:04:28.059Z,1.85
2023-04-30T09:05:28.477Z,1.34
2023-04-30T09:06:27.626Z,1.69
2023-04-30T09:07:28.518Z,1.67
2023-04-30T09:08:28.528Z,1.43
2023-04-30T09:09:28.602Z,1.56
2023-04-30T09:10:27.594Z,1.56
2023-04-30T09:11:28.631Z,1.12
2023-04-30T09:12:27.652Z,2.02
2023-04-30T09:13:28.680Z,1.32
2023-04-30T09:14:28.831Z,1.36
2023-04-30T09:15:28.803Z,1.53
2023-04-30T09:16:28.884Z,1.29
2023-04-30T09:17:28.817Z,1.61
2023-04-30T09:18:28.814Z,1.14
2023-04-30T09:19:28.831Z,1.39
2023-04-30T09:20:27.846Z,1.49
2023-04-30T09:21:28.981Z,1.44
2023-04-30T09:22:28.902Z,1.40
2023-04-30T09:23:28.938Z,1.62
2023-04-30T09:24:28.922Z,1.22
2023-04-30T09:25:28.024Z,1.45
2023-04-30T09:26:29.025Z,1.47
2023-04-30T09:27:29.028Z,1.32
2023-04-30T09:28:27.998Z,1.12
2023-04-30T09:29:29.022Z,1.07
2023-04-30T09:30:28.042Z,1.72
2023-04-30T09:31:29.080Z,1.56
2023-04-30T09:32:29.156Z,1.40
2023-04-30T09:33:29.069Z,1.70
2023-04-30T09:34:29.092Z,2.06
2023-04-30T09:35:28.089Z,1.50
2023-04-30T09:36:28.097Z,1.56
2023-04-30T09:37:29.084Z,1.42
2023-04-30T09:38:29.093Z,1.34
2023-04-30T09:39:28.111Z,1.33
2023-04-30T09:40:29.170Z,1.52
2023-04-30T09:41:29.147Z,1.34
2023-04-30T09:42:29.197Z,1.38
2023-04-30T09:43:28.206Z,1.10
2023-04-30T09:44:29.218Z,1.38
2023-04-30T09:45:29.274Z,0.95
2023-04-30T09:46:28.276Z,1.44
2023-04-30T09:47:29.250Z,1.40
2023-04-30T09:48:28.458Z,1.59
2023-04-30T09:49:29.242Z,1.72
2023-04-30T09:50:29.275Z,1.61
2023-04-30T09:51:29.290Z,1.60
2023-04-30T09:52:28.266Z,1.37
2023-04-30T09:53:29.320Z,1.58
2023-04-30T09:54:29.358Z,1.14
2023-04-30T09:55:29.324Z,1.55
2023-04-30T09:56:29.326Z,1.34
2023-04-30T09:57:28.397Z,1.64
2023-04-30T09:58:28.340Z,1.14
2023-04-30T09:59:28.373Z,1.26
2023-04-30T10:00:29.431Z,1.45
2023-04-30T10:01:29.487Z,1.47
2023-04-30T10:02:29.502Z,1.29
2023-04-30T10:03:29.472Z,1.44
2023-04-30T10:04:29.518Z,1.72
2023-04-30T10:05:28.386Z,1.21
2023-04-30T10:06:29.491Z,1.63
2023-04-30T10:07:29.452Z,1.62
2023-04-30T10:08:28.479Z,1.52
2023-04-30T10:09:29.445Z,1.29
2023-04-30T10:10:29.444Z,1.40
2023-04-30T10:11:29.451Z,1.48
2023-04-30T10:12:29.440Z,1.48
2023-04-30T10:13:29.476Z,1.81
2023-04-30T10:14:28.521Z,1.30
2023-04-30T10:15:28.489Z,1.61
2023-04-30T10:16:28.557Z,1.41
2023-04-30T10:17:28.549Z,1.47
2023-04-30T10:18:29.588Z,1.24
2023-04-30T10:19:28.571Z,1.78
2023-04-30T10:20:29.577Z,1.66
2023-04-30T10:21:28.575Z,1.58
2023-04-30T10:22:29.684Z,1.46
2023-04-30T10:23:29.671Z,1.44
2023-04-30T10:24:29.692Z,1.64
2023-04-30T10:25:28.700Z,1.44
2023-04-30T10:26:29.658Z,1.74
2023-04-30T10:27:28.708Z,1.50
2023-04-30T10:28:29.702Z,1.58
2023-04-30T10:29:28.725Z,1.83
2023-04-30T10:30:28.720Z,1.26
2023-04-30T10:31:29.788Z,1.79
2023-04-30T10:32:29.840Z,1.84
2023-04-30T10:33:28.755Z,1.39
2023-04-30T10:34:29.844Z,1.67
2023-04-30T10:35:29.807Z,1.76
2023-04-30T10:36:28.868Z,1.64
2023-04-30T10:37:29.880Z,1.84
2023-04-30T10:38:29.841Z,1.70
2023-04-30T10:39:28.914Z,1.57
2023-04-30T10:40:28.896Z,1.39
2023-04-30T10:41:29.943Z,1.50
2023-04-30T10:42:29.934Z,2.02
2023-04-30T10:43:30.014Z,1.44
2023-04-30T10:44:30.029Z,1.40
2023-04-30T10:45:30.027Z,1.67
2023-04-30T10:46:29.148Z,1.46
2023-04-30T10:47:29.096Z,1.60
2023-04-30T10:48:30.100Z,1.55
2023-04-30T10:49:29.134Z,1.45
2023-04-30T10:50:30.168Z,1.55
2023-04-30T10:51:29.179Z,1.44
2023-04-30T10:52:30.253Z,1.41
2023-04-30T10:53:30.252Z,1.67
2023-04-30T10:54:30.285Z,1.93
2023-04-30T10:55:30.312Z,1.67
2023-04-30T10:56:30.321Z,1.36
2023-04-30T10:57:29.351Z,1.52
2023-04-30T10:58:30.392Z,1.74
2023-04-30T10:59:29.465Z,1.94
2023-04-30T11:00:29.526Z,1.82
2023-04-30T11:01:30.562Z,1.43
2023-04-30T11:02:29.691Z,1.37
2023-04-30T11:03:30.617Z,1.64
2023-04-30T11:04:30.690Z,1.36
2023-04-30T11:05:30.664Z,1.71
2023-04-30T11:06:30.738Z,1.47
2023-04-30T11:07:30.780Z,1.49
2023-04-30T11:08:30.803Z,1.62
2023-04-30T11:09:29.897Z,1.31
2023-04-30T11:10:29.912Z,1.40
2023-04-30T11:11:30.868Z,1.99
2023-04-30T11:12:30.003Z,1.52
2023-04-30T11:13:30.980Z,1.69
2023-04-30T11:14:31.239Z,1.43
2023-04-30T11:15:30.559Z,1.44
2023-04-30T11:16:31.269Z,1.62
2023-04-30T11:17:30.271Z,1.67
2023-04-30T11:18:31.228Z,1.71
2023-04-30T11:19:31.230Z,1.51
2023-04-30T11:20:31.408Z,1.55
2023-04-30T11:21:31.342Z,1.48
2023-04-30T11:22:31.344Z,1.99
2023-04-30T11:23:39.228Z,1.68
2023-04-30T11:24:31.395Z,1.53
2023-04-30T11:25:30.355Z,1.67
2023-04-30T11:26:31.369Z,1.45
2023-04-30T11:27:30.353Z,2.02
2023-04-30T11:28:31.449Z,1.82
2023-04-30T11:29:31.592Z,2.03
2023-04-30T11:30:31.543Z,1.61
2023-04-30T11:31:30.358Z,1.82
2023-04-30T11:32:30.366Z,1.53
2023-04-30T11:33:30.362Z,1.56
2023-04-30T11:34:31.365Z,1.64
2023-04-30T11:35:31.374Z,1.81
2023-04-30T11:36:31.356Z,1.36
2023-04-30T11:37:30.393Z,1.45
2023-04-30T11:38:31.421Z,1.76
2023-04-30T11:39:31.425Z,1.87
2023-04-30T11:40:31.480Z,1.32
2023-04-30T11:41:30.502Z,1.31
2023-04-30T11:42:31.533Z,1.92
2023-04-30T11:43:31.590Z,1.42
2023-04-30T11:44:31.640Z,1.53
2023-04-30T11:45:31.663Z,1.83
2023-04-30T11:46:30.720Z,1.59
2023-04-30T11:47:31.807Z,1.60
2023-04-30T11:48:31.746Z,1.61
2023-04-30T11:49:31.877Z,2.05
2023-04-30T11:50:30.846Z,1.85
2023-04-30T11:51:31.820Z,1.50
2023-04-30T11:52:31.840Z,1.49
2023-04-30T11:53:30.902Z,2.03
2023-04-30T11:54:31.935Z,1.60
2023-04-30T11:55:32.042Z,1.45
2023-04-30T11:56:32.009Z,1.81
2023-04-30T11:57:31.063Z,1.48
2023-04-30T11:58:32.271Z,1.71
2023-04-30T11:59:31.165Z,1.41
2023-04-30T12:00:32.194Z,1.82
2023-04-30T12:01:32.284Z,1.67
2023-04-30T12:02:32.356Z,1.79
2023-04-30T12:03:31.403Z,1.68
2023-04-30T12:04:32.362Z,1.54
2023-04-30T12:05:32.323Z,1.62
2023-04-30T12:06:31.589Z,1.59
2023-04-30T12:07:32.438Z,1.70
2023-04-30T12:08:32.480Z,1.66
2023-04-30T12:09:32.456Z,1.28
2023-04-30T12:10:32.514Z,1.51
2023-04-30T12:11:32.565Z,1.80
2023-04-30T12:12:31.587Z,1.60
2023-04-30T12:13:32.680Z,1.44
2023-04-30T12:14:31.668Z,1.57
2023-04-30T12:15:32.699Z,1.70
2023-04-30T12:16:32.813Z,1.45
2023-04-30T12:17:32.815Z,1.63
2023-04-30T12:18:31.798Z,1.76
2023-04-30T12:19:32.845Z,1.51
2023-04-30T12:20:32.897Z,1.59
2023-04-30T12:21:32.915Z,1.57
2023-04-30T12:22:31.949Z,1.61
2023-04-30T12:23:32.993Z,1.61
2023-04-30T12:24:32.028Z,1.38
2023-04-30T12:25:32.054Z,1.02
2023-04-30T12:26:33.109Z,1.83
2023-04-30T12:27:33.085Z,1.65
2023-04-30T12:28:32.167Z,1.29
2023-04-30T12:29:33.188Z,1.61
2023-04-30T12:30:32.178Z,1.57
2023-04-30T12:31:32.336Z,1.88
2023-04-30T12:32:33.301Z,1.53
2023-04-30T12:33:32.345Z,1.66
2023-04-30T12:34:33.802Z,1.62
2023-04-30T12:35:33.441Z,1.48
2023-04-30T12:36:32.430Z,1.24
2023-04-30T12:37:33.438Z,1.30
2023-04-30T12:38:33.475Z,1.43
2023-04-30T12:39:33.497Z,1.46
2023-04-30T12:40:33.544Z,1.27
2023-04-30T12:41:33.559Z,1.38
2023-04-30T12:42:32.569Z,1.88
2023-04-30T12:43:32.594Z,1.67
2023-04-30T12:44:33.640Z,1.51
2023-04-30T12:45:33.677Z,1.79
2023-04-30T12:46:32.815Z,1.84
2023-04-30T12:47:32.810Z,1.82
2023-04-30T12:48:33.757Z,1.70
2023-04-30T12:49:33.783Z,1.67
2023-04-30T12:50:32.856Z,1.65
2023-04-30T12:51:33.924Z,1.94
2023-04-30T12:52:33.969Z,1.41
2023-04-30T12:53:34.010Z,1.61
2023-04-30T12:54:32.996Z,1.32
2023-04-30T12:55:34.055Z,1.86
2023-04-30T12:56:33.045Z,1.56
2023-04-30T12:57:33.056Z,1.38
2023-04-30T12:58:34.098Z,1.58
2023-04-30T12:59:33.107Z,1.67
2023-04-30T13:00:34.178Z,1.29
2023-04-30T13:01:34.285Z,1.51
2023-04-30T13:02:34.263Z,1.38
2023-04-30T13:03:34.361Z,1.57
2023-04-30T13:04:33.233Z,1.42
2023-04-30T13:05:34.257Z,1.52
2023-04-30T13:06:34.333Z,1.86
2023-04-30T13:07:34.351Z,1.51
2023-04-30T13:08:42.693Z,1.65
2023-04-30T13:09:34.357Z,1.53
2023-04-30T13:10:33.391Z,1.64
2023-04-30T13:11:34.319Z,1.67
2023-04-30T13:12:33.300Z,1.17
2023-04-30T13:13:33.409Z,1.60
2023-04-30T13:14:34.327Z,1.52
2023-04-30T13:15:33.308Z,1.15
2023-04-30T13:16:34.351Z,1.52
2023-04-30T13:17:34.366Z,1.57
2023-04-30T13:18:34.268Z,1.72